sensor_id;sensor_type;location;lat;lon;timestamp;pressure;altitude;pressure_sealevel;temperature;humidity
45403;BME280;47427;51.976;5.326;2023-03-22T00:03:02;100888.19;;;8.48;100.00
45403;BME280;47427;51.976;5.326;2023-03-22T00:06:25;100870.44;;;8.39;100.00
45403;BME280;47427;51.976;5.326;2023-03-22T00:09:48;100852.53;;;8.25;100.00
45403;BME280;47427;51.976;5.326;2023-03-22T00:13:11;100870.38;;;8.37;100.00
45403;BME280;47427;51.976;5.326;2023-03-22T00:16:33;100850.81;;;8.26;100.00
45403;BME280;47427;51.976;5.326;2023-03-22T00:19:56;100866.44;;;8.24;100.00
45403;BME280;47427;51.976;5.326;2023-03-22T00:23:20;100854.66;;;8.12;100.00
45403;BME280;47427;51.976;5.326;2023-03-22T00:26:42;100857.94;;;8.06;100.00
45403;BME280;47427;51.976;5.326;2023-03-22T00:30:06;100856.53;;;8.16;100.00
45403;BME280;47427;51.976;5.326;2023-03-22T00:33:30;100854.47;;;8.07;100.00
45403;BME280;47427;51.976;5.326;2023-03-22T00:36:53;100851.84;;;8.07;100.00
45403;BME280;47427;51.976;5.326;2023-03-22T00:40:18;100847.47;;;8.06;100.00
45403;BME280;47427;51.976;5.326;2023-03-22T00:43:39;100845.75;;;8.07;100.00
45403;BME280;47427;51.976;5.326;2023-03-22T00:47:02;100844.97;;;8.09;100.00
45403;BME280;47427;51.976;5.326;2023-03-22T00:50:25;100821.38;;;8.08;100.00
45403;BME280;47427;51.976;5.326;2023-03-22T00:53:47;100826.59;;;8.08;100.00
45403;BME280;47427;51.976;5.326;2023-03-22T00:57:14;100829.47;;;8.14;100.00
45403;BME280;47427;51.976;5.326;2023-03-22T01:00:36;100817.28;;;8.14;100.00
45403;BME280;47427;51.976;5.326;2023-03-22T01:03:58;100806.38;;;8.02;100.00
45403;BME280;47427;51.976;5.326;2023-03-22T01:07:22;100804.88;;;8.09;100.00
45403;BME280;47427;51.976;5.326;2023-03-22T01:10:44;100803.66;;;7.99;100.00
45403;BME280;47427;51.976;5.326;2023-03-22T01:14:07;100788.66;;;7.93;100.00
45403;BME280;47427;51.976;5.326;2023-03-22T01:17:31;100798.63;;;8.03;100.00
45403;BME280;47427;51.976;5.326;2023-03-22T01:20:52;100780.06;;;7.96;100.00
45403;BME280;47427;51.976;5.326;2023-03-22T01:24:15;100777.53;;;7.99;100.00
45403;BME280;47427;51.976;5.326;2023-03-22T01:27:38;100772.50;;;8.03;100.00
45403;BME280;47427;51.976;5.326;2023-03-22T01:31:01;100777.13;;;8.12;100.00
45403;BME280;47427;51.976;5.326;2023-03-22T01:34:24;100752.69;;;8.10;100.00
45403;BME280;47427;51.976;5.326;2023-03-22T01:37:47;100763.97;;;8.35;100.00
45403;BME280;47427;51.976;5.326;2023-03-22T01:41:11;100726.56;;;8.37;100.00
45403;BME280;47427;51.976;5.326;2023-03-22T01:45:21;100751.53;;;8.53;100.00
45403;BME280;47427;51.976;5.326;2023-03-22T01:48:47;100723.88;;;8.60;100.00
45403;BME280;47427;51.976;5.326;2023-03-22T01:52:14;100725.13;;;8.73;100.00
45403;BME280;47427;51.976;5.326;2023-03-22T01:55:54;100713.16;;;8.79;100.00
45403;BME280;47427;51.976;5.326;2023-03-22T01:59:23;100699.53;;;8.62;100.00
45403;BME280;47427;51.976;5.326;2023-03-22T02:03:06;100690.41;;;8.77;100.00
45403;BME280;47427;51.976;5.326;2023-03-22T02:06:34;100679.78;;;8.72;100.00
45403;BME280;47427;51.976;5.326;2023-03-22T02:10:05;100679.84;;;8.74;100.00
45403;BME280;47427;51.976;5.326;2023-03-22T02:44:44;100635.56;;;9.10;100.00
45403;BME280;47427;51.976;5.326;2023-03-22T02:48:25;100617.16;;;9.07;100.00
45403;BME280;47427;51.976;5.326;2023-03-22T02:51:51;100620.56;;;9.35;100.00
45403;BME280;47427;51.976;5.326;2023-03-22T02:55:29;100622.56;;;9.45;100.00
45403;BME280;47427;51.976;5.326;2023-03-22T02:58:58;100632.28;;;9.49;100.00
45403;BME280;47427;51.976;5.326;2023-03-22T03:02:22;100599.81;;;9.42;100.00
45403;BME280;47427;51.976;5.326;2023-03-22T03:05:49;100603.34;;;9.44;100.00
45403;BME280;47427;51.976;5.326;2023-03-22T03:09:15;100608.69;;;9.49;100.00
45403;BME280;47427;51.976;5.326;2023-03-22T03:12:40;100601.66;;;9.46;100.00
45403;BME280;47427;51.976;5.326;2023-03-22T03:16:02;100618.50;;;9.56;100.00
45403;BME280;47427;51.976;5.326;2023-03-22T03:23:46;100620.72;;;9.41;100.00
45403;BME280;47427;51.976;5.326;2023-03-22T03:27:22;100620.63;;;9.38;100.00
45403;BME280;47427;51.976;5.326;2023-03-22T03:30:59;100617.03;;;9.34;100.00
45403;BME280;47427;51.976;5.326;2023-03-22T03:38:26;100620.28;;;9.25;100.00
45403;BME280;47427;51.976;5.326;2023-03-22T03:41:49;100602.50;;;9.14;100.00
45403;BME280;47427;51.976;5.326;2023-03-22T03:45:14;100621.16;;;9.24;100.00
45403;BME280;47427;51.976;5.326;2023-03-22T03:48:41;100597.84;;;9.02;100.00
45403;BME280;47427;51.976;5.326;2023-03-22T03:52:05;100613.75;;;9.09;100.00
45403;BME280;47427;51.976;5.326;2023-03-22T03:55:29;100605.91;;;9.11;100.00
45403;BME280;47427;51.976;5.326;2023-03-22T03:58:51;100614.56;;;9.08;100.00
45403;BME280;47427;51.976;5.326;2023-03-22T04:02:14;100609.13;;;9.01;100.00
45403;BME280;47427;51.976;5.326;2023-03-22T04:05:40;100613.75;;;9.09;100.00
45403;BME280;47427;51.976;5.326;2023-03-22T04:09:02;100620.88;;;9.15;100.00
45403;BME280;47427;51.976;5.326;2023-03-22T04:12:29;100617.16;;;9.07;100.00
45403;BME280;47427;51.976;5.326;2023-03-22T04:16:12;100623.41;;;9.12;100.00
45403;BME280;47427;51.976;5.326;2023-03-22T04:19:34;100626.84;;;9.11;100.00
45403;BME280;47427;51.976;5.326;2023-03-22T04:22:55;100615.50;;;9.10;100.00
45403;BME280;47427;51.976;5.326;2023-03-22T04:26:39;100611.94;;;9.07;100.00
45403;BME280;47427;51.976;5.326;2023-03-22T04:30:22;100605.03;;;9.10;100.00
45403;BME280;47427;51.976;5.326;2023-03-22T04:33:57;100568.13;;;9.01;100.00
45403;BME280;47427;51.976;5.326;2023-03-22T04:37:30;100593.19;;;9.23;100.00
45403;BME280;47427;51.976;5.326;2023-03-22T04:41:05;100587.00;;;9.21;100.00
45403;BME280;47427;51.976;5.326;2023-03-22T04:44:34;100583.50;;;9.19;100.00
45403;BME280;47427;51.976;5.326;2023-03-22T04:47:59;100579.34;;;9.27;100.00
45403;BME280;47427;51.976;5.326;2023-03-22T04:51:24;100582.97;;;9.32;100.00
45403;BME280;47427;51.976;5.326;2023-03-22T04:55:07;100583.78;;;9.31;100.00
45403;BME280;47427;51.976;5.326;2023-03-22T04:58:28;100581.91;;;9.26;100.00
45403;BME280;47427;51.976;5.326;2023-03-22T05:01:51;100574.72;;;9.19;100.00
45403;BME280;47427;51.976;5.326;2023-03-22T05:05:18;100573.81;;;9.17;100.00
45403;BME280;47427;51.976;5.326;2023-03-22T05:08:42;100570.19;;;9.11;100.00
45403;BME280;47427;51.976;5.326;2023-03-22T05:12:05;100580.59;;;9.10;100.00
45403;BME280;47427;51.976;5.326;2023-03-22T05:15:41;100570.00;;;9.05;100.00
45403;BME280;47427;51.976;5.326;2023-03-22T05:19:03;100554.84;;;8.94;100.00
45403;BME280;47427;51.976;5.326;2023-03-22T05:22:25;100567.25;;;9.01;100.00
45403;BME280;47427;51.976;5.326;2023-03-22T05:25:50;100560.94;;;8.93;100.00
45403;BME280;47427;51.976;5.326;2023-03-22T05:29:13;100568.84;;;8.94;100.00
45403;BME280;47427;51.976;5.326;2023-03-22T05:33:03;100546.75;;;8.84;100.00
45403;BME280;47427;51.976;5.326;2023-03-22T05:36:27;100555.25;;;8.77;100.00
45403;BME280;47427;51.976;5.326;2023-03-22T05:40:16;100553.31;;;8.70;100.00
45403;BME280;47427;51.976;5.326;2023-03-22T05:43:40;100545.38;;;8.67;100.00
45403;BME280;47427;51.976;5.326;2023-03-22T05:47:04;100549.94;;;8.74;100.00
45403;BME280;47427;51.976;5.326;2023-03-22T05:50:31;100541.00;;;8.66;100.00
45403;BME280;47427;51.976;5.326;2023-03-22T05:53:53;100556.81;;;8.71;100.00
45403;BME280;47427;51.976;5.326;2023-03-22T05:57:20;100545.53;;;8.73;100.00
45403;BME280;47427;51.976;5.326;2023-03-22T06:00:45;100543.13;;;8.79;100.00
45403;BME280;47427;51.976;5.326;2023-03-22T06:04:15;100528.81;;;8.66;100.00
45403;BME280;47427;51.976;5.326;2023-03-22T06:07:59;100536.44;;;8.59;100.00
45403;BME280;47427;51.976;5.326;2023-03-22T06:11:21;100525.69;;;8.50;100.00
45403;BME280;47427;51.976;5.326;2023-03-22T06:14:48;100526.78;;;8.58;100.00
45403;BME280;47427;51.976;5.326;2023-03-22T06:18:39;100561.28;;;8.75;100.00
45403;BME280;47427;51.976;5.326;2023-03-22T06:22:05;100548.72;;;8.93;100.00
45403;BME280;47427;51.976;5.326;2023-03-22T06:25:29;100532.94;;;8.90;100.00
45403;BME280;47427;51.976;5.326;2023-03-22T06:28:51;100546.38;;;9.02;100.00
45403;BME280;47427;51.976;5.326;2023-03-22T06:32:34;100559.16;;;9.23;100.00
45403;BME280;47427;51.976;5.326;2023-03-22T06:35:55;100549.59;;;9.59;100.00
45403;BME280;47427;51.976;5.326;2023-03-22T06:39:27;100532.31;;;9.67;100.00
45403;BME280;47427;51.976;5.326;2023-03-22T06:42:49;100543.53;;;9.96;100.00
45403;BME280;47427;51.976;5.326;2023-03-22T06:46:14;100550.78;;;10.46;100.00
45403;BME280;47427;51.976;5.326;2023-03-22T06:49:42;100542.19;;;10.51;100.00
45403;BME280;47427;51.976;5.326;2023-03-22T06:53:11;100556.78;;;10.79;100.00
45403;BME280;47427;51.976;5.326;2023-03-22T06:56:33;100480.84;;;10.45;100.00
45403;BME280;47427;51.976;5.326;2023-03-22T06:59:57;100559.34;;;10.78;100.00
45403;BME280;47427;51.976;5.326;2023-03-22T07:03:19;100552.03;;;10.61;100.00
45403;BME280;47427;51.976;5.326;2023-03-22T07:06:56;100531.63;;;10.48;100.00
45403;BME280;47427;51.976;5.326;2023-03-22T07:10:21;100547.28;;;10.44;100.00
45403;BME280;47427;51.976;5.326;2023-03-22T07:13:44;100553.19;;;10.35;100.00
45403;BME280;47427;51.976;5.326;2023-03-22T07:17:12;100559.13;;;10.28;100.00
45403;BME280;47427;51.976;5.326;2023-03-22T07:20:34;100554.16;;;10.38;100.00
45403;BME280;47427;51.976;5.326;2023-03-22T07:24:03;100542.09;;;10.47;100.00
45403;BME280;47427;51.976;5.326;2023-03-22T07:27:28;100548.69;;;10.69;100.00
45403;BME280;47427;51.976;5.326;2023-03-22T07:31:03;100547.44;;;10.95;100.00
45403;BME280;47427;51.976;5.326;2023-03-22T07:34:36;100555.53;;;11.06;100.00
45403;BME280;47427;51.976;5.326;2023-03-22T07:38:02;100544.16;;;11.04;100.00
45403;BME280;47427;51.976;5.326;2023-03-22T07:41:26;100543.28;;;11.05;100.00
45403;BME280;47427;51.976;5.326;2023-03-22T07:45:10;100537.59;;;11.29;100.00
45403;BME280;47427;51.976;5.326;2023-03-22T07:48:37;100574.72;;;11.47;100.00
45403;BME280;47427;51.976;5.326;2023-03-22T07:52:20;100542.19;;;11.91;100.00
45403;BME280;47427;51.976;5.326;2023-03-22T07:55:43;100562.53;;;11.53;100.00
45403;BME280;47427;51.976;5.326;2023-03-22T07:59:05;100543.94;;;11.40;100.00
45403;BME280;47427;51.976;5.326;2023-03-22T08:02:28;100552.41;;;11.25;100.00
45403;BME280;47427;51.976;5.326;2023-03-22T08:05:53;100553.00;;;11.59;100.00
45403;BME280;47427;51.976;5.326;2023-03-22T08:09:18;100550.81;;;13.13;100.00
45403;BME280;47427;51.976;5.326;2023-03-22T08:12:43;100560.13;;;14.93;96.29
45403;BME280;47427;51.976;5.326;2023-03-22T08:16:15;100548.25;;;14.14;99.89
45403;BME280;47427;51.976;5.326;2023-03-22T08:19:37;100549.59;;;15.05;96.28
45403;BME280;47427;51.976;5.326;2023-03-22T08:23:03;100540.94;;;15.91;87.77
45403;BME280;47427;51.976;5.326;2023-03-22T08:26:48;100553.59;;;14.23;94.54
45403;BME280;47427;51.976;5.326;2023-03-22T08:30:17;100552.88;;;13.39;99.41
45403;BME280;47427;51.976;5.326;2023-03-22T08:33:40;100556.91;;;13.08;100.00
45403;BME280;47427;51.976;5.326;2023-03-22T08:37:06;100539.78;;;13.45;100.00
45403;BME280;47427;51.976;5.326;2023-03-22T08:40:30;100553.63;;;14.32;95.52
45403;BME280;47427;51.976;5.326;2023-03-22T08:43:56;100535.59;;;13.72;95.99
45403;BME280;47427;51.976;5.326;2023-03-22T08:47:18;100533.31;;;13.17;100.00
45403;BME280;47427;51.976;5.326;2023-03-22T08:50:45;100552.34;;;12.91;100.00
45403;BME280;47427;51.976;5.326;2023-03-22T08:54:16;100538.81;;;12.62;100.00
45403;BME280;47427;51.976;5.326;2023-03-22T08:57:47;100534.53;;;12.70;100.00
45403;BME280;47427;51.976;5.326;2023-03-22T09:01:25;100534.22;;;12.47;100.00
45403;BME280;47427;51.976;5.326;2023-03-22T09:04:52;100523.34;;;12.21;100.00
45403;BME280;47427;51.976;5.326;2023-03-22T09:08:14;100528.84;;;11.82;100.00
45403;BME280;47427;51.976;5.326;2023-03-22T09:11:41;100550.84;;;11.85;100.00
45403;BME280;47427;51.976;5.326;2023-03-22T09:15:05;100542.00;;;11.80;100.00
45403;BME280;47427;51.976;5.326;2023-03-22T09:18:31;100551.91;;;11.95;100.00
45403;BME280;47427;51.976;5.326;2023-03-22T09:21:56;100551.00;;;11.95;100.00
45403;BME280;47427;51.976;5.326;2023-03-22T09:25:28;100517.47;;;11.81;100.00
45403;BME280;47427;51.976;5.326;2023-03-22T09:28:49;100546.13;;;11.66;100.00
45403;BME280;47427;51.976;5.326;2023-03-22T09:32:12;100526.75;;;11.09;100.00
45403;BME280;47427;51.976;5.326;2023-03-22T09:35:40;100548.28;;;10.93;100.00
45403;BME280;47427;51.976;5.326;2023-03-22T09:39:02;100540.59;;;11.03;100.00
45403;BME280;47427;51.976;5.326;2023-03-22T09:42:43;100550.41;;;11.12;100.00
45403;BME280;47427;51.976;5.326;2023-03-22T09:46:14;100543.94;;;10.95;100.00
45403;BME280;47427;51.976;5.326;2023-03-22T09:49:39;100549.09;;;10.90;100.00
45403;BME280;47427;51.976;5.326;2023-03-22T09:53:07;100550.34;;;10.65;100.00
45403;BME280;47427;51.976;5.326;2023-03-22T09:56:31;100539.59;;;10.53;100.00
45403;BME280;47427;51.976;5.326;2023-03-22T10:00:17;100543.78;;;10.45;100.00
45403;BME280;47427;51.976;5.326;2023-03-22T10:08:43;100539.31;;;10.39;100.00
45403;BME280;47427;51.976;5.326;2023-03-22T10:12:33;100540.22;;;10.41;100.00
45403;BME280;47427;51.976;5.326;2023-03-22T10:16:02;100526.13;;;10.36;100.00
45403;BME280;47427;51.976;5.326;2023-03-22T10:19:47;100543.88;;;10.49;100.00
45403;BME280;47427;51.976;5.326;2023-03-22T10:23:17;100523.19;;;10.24;100.00
45403;BME280;47427;51.976;5.326;2023-03-22T10:26:45;100538.09;;;10.26;100.00
45403;BME280;47427;51.976;5.326;2023-03-22T10:33:45;100510.22;;;9.90;100.00
45403;BME280;47427;51.976;5.326;2023-03-22T10:37:19;100538.31;;;9.97;100.00
45403;BME280;47427;51.976;5.326;2023-03-22T10:40:43;100510.84;;;9.82;100.00
45403;BME280;47427;51.976;5.326;2023-03-22T10:44:06;100518.78;;;9.85;100.00
45403;BME280;47427;51.976;5.326;2023-03-22T10:47:48;100545.84;;;9.84;100.00
45403;BME280;47427;51.976;5.326;2023-03-22T10:51:45;100513.97;;;9.65;100.00
45403;BME280;47427;51.976;5.326;2023-03-22T10:55:13;100524.84;;;9.82;100.00
45403;BME280;47427;51.976;5.326;2023-03-22T10:58:36;100533.63;;;10.22;100.00
45403;BME280;47427;51.976;5.326;2023-03-22T11:02:00;100487.06;;;10.10;100.00
45403;BME280;47427;51.976;5.326;2023-03-22T11:05:26;100514.72;;;10.35;100.00
45403;BME280;47427;51.976;5.326;2023-03-22T11:08:57;100520.06;;;10.40;100.00
45403;BME280;47427;51.976;5.326;2023-03-22T11:12:22;100541.25;;;10.49;100.00
45403;BME280;47427;51.976;5.326;2023-03-22T11:15:54;100508.81;;;10.44;100.00
45403;BME280;47427;51.976;5.326;2023-03-22T11:19:34;100511.94;;;10.28;100.00
45403;BME280;47427;51.976;5.326;2023-03-22T11:23:02;100518.00;;;10.27;100.00
45403;BME280;47427;51.976;5.326;2023-03-22T11:26:35;100495.13;;;10.18;100.00
45403;BME280;47427;51.976;5.326;2023-03-22T11:34:00;100522.13;;;10.53;100.00
45403;BME280;47427;51.976;5.326;2023-03-22T11:37:49;100533.00;;;10.73;100.00
45403;BME280;47427;51.976;5.326;2023-03-22T11:41:24;100512.94;;;10.75;100.00
45403;BME280;47427;51.976;5.326;2023-03-22T11:44:47;100519.47;;;10.96;100.00
45403;BME280;47427;51.976;5.326;2023-03-22T11:48:21;100520.66;;;11.13;100.00
45403;BME280;47427;51.976;5.326;2023-03-22T11:51:44;100531.44;;;11.28;100.00
45403;BME280;47427;51.976;5.326;2023-03-22T11:55:11;100531.50;;;11.30;100.00
45403;BME280;47427;51.976;5.326;2023-03-22T12:05:39;100529.13;;;10.98;100.00
45403;BME280;47427;51.976;5.326;2023-03-22T12:09:17;100578.47;;;11.15;100.00
45403;BME280;47427;51.976;5.326;2023-03-22T12:12:50;100544.28;;;11.12;100.00
45403;BME280;47427;51.976;5.326;2023-03-22T12:16:27;100529.56;;;11.21;100.00
45403;BME280;47427;51.976;5.326;2023-03-22T12:19:54;100538.44;;;11.28;100.00
45403;BME280;47427;51.976;5.326;2023-03-22T12:23:22;100549.75;;;11.24;100.00
45403;BME280;47427;51.976;5.326;2023-03-22T12:26:44;100533.16;;;11.26;100.00
45403;BME280;47427;51.976;5.326;2023-03-22T12:30:20;100520.66;;;11.12;100.00
45403;BME280;47427;51.976;5.326;2023-03-22T12:33:48;100542.00;;;11.30;100.00
45403;BME280;47427;51.976;5.326;2023-03-22T12:37:17;100523.47;;;11.22;100.00
45403;BME280;47427;51.976;5.326;2023-03-22T12:40:42;100513.84;;;11.23;100.00
45403;BME280;47427;51.976;5.326;2023-03-22T12:44:34;100527.28;;;11.40;100.00
45403;BME280;47427;51.976;5.326;2023-03-22T12:48:09;100517.78;;;11.48;100.00
45403;BME280;47427;51.976;5.326;2023-03-22T12:51:55;100506.28;;;11.40;100.00
45403;BME280;47427;51.976;5.326;2023-03-22T12:55:31;100511.53;;;11.40;100.00
45403;BME280;47427;51.976;5.326;2023-03-22T12:59:01;100508.06;;;11.42;100.00
45403;BME280;47427;51.976;5.326;2023-03-22T13:02:31;100515.38;;;11.62;100.00
45403;BME280;47427;51.976;5.326;2023-03-22T13:06:04;100507.50;;;11.62;100.00
45403;BME280;47427;51.976;5.326;2023-03-22T13:10:30;100518.91;;;11.62;100.00
45403;BME280;47427;51.976;5.326;2023-03-22T13:16:53;100518.00;;;11.60;100.00
45403;BME280;47427;51.976;5.326;2023-03-22T13:34:56;100516.41;;;11.71;100.00
45403;BME280;47427;51.976;5.326;2023-03-22T13:41:48;100520.88;;;11.76;100.00
45403;BME280;47427;51.976;5.326;2023-03-22T13:45:32;100517.94;;;11.56;100.00
45403;BME280;47427;51.976;5.326;2023-03-22T13:52:41;100505.28;;;11.33;100.00
45403;BME280;47427;51.976;5.326;2023-03-22T13:56:05;100507.66;;;11.19;100.00
45403;BME280;47427;51.976;5.326;2023-03-22T13:59:30;100519.09;;;11.23;100.00
45403;BME280;47427;51.976;5.326;2023-03-22T14:03:39;100518.19;;;11.19;100.00
45403;BME280;47427;51.976;5.326;2023-03-22T14:07:42;100522.31;;;11.08;100.00
45403;BME280;47427;51.976;5.326;2023-03-22T14:11:55;100523.06;;;11.01;100.00
45403;BME280;47427;51.976;5.326;2023-03-22T14:15:31;100509.03;;;10.99;100.00
45403;BME280;47427;51.976;5.326;2023-03-22T14:18:54;100509.22;;;11.10;100.00
45403;BME280;47427;51.976;5.326;2023-03-22T14:22:43;100503.28;;;11.20;100.00
45403;BME280;47427;51.976;5.326;2023-03-22T14:26:21;100510.34;;;11.24;100.00
45403;BME280;47427;51.976;5.326;2023-03-22T14:29:48;100501.47;;;11.16;100.00
45403;BME280;47427;51.976;5.326;2023-03-22T14:33:17;100455.91;;;11.12;100.00
45403;BME280;47427;51.976;5.326;2023-03-22T14:36:44;100470.94;;;11.22;100.00
45403;BME280;47427;51.976;5.326;2023-03-22T14:40:15;100459.53;;;11.20;100.00
45403;BME280;47427;51.976;5.326;2023-03-22T14:43:38;100468.47;;;11.30;100.00
45403;BME280;47427;51.976;5.326;2023-03-22T14:47:19;100470.88;;;11.18;100.00
45403;BME280;47427;51.976;5.326;2023-03-22T14:50:51;100455.72;;;11.01;100.00
45403;BME280;47427;51.976;5.326;2023-03-22T14:54:33;100452.09;;;10.95;100.00
45403;BME280;47427;51.976;5.326;2023-03-22T14:58:00;100478.19;;;10.87;100.00
45403;BME280;47427;51.976;5.326;2023-03-22T15:01:40;100473.16;;;10.99;100.00
45403;BME280;47427;51.976;5.326;2023-03-22T15:05:07;100458.28;;;11.00;100.00
45403;BME280;47427;51.976;5.326;2023-03-22T15:08:31;100441.94;;;11.15;100.00
45403;BME280;47427;51.976;5.326;2023-03-22T15:11:58;100456.00;;;11.18;100.00
45403;BME280;47427;51.976;5.326;2023-03-22T15:15:34;100455.97;;;11.17;100.00
45403;BME280;47427;51.976;5.326;2023-03-22T15:18:57;100459.34;;;11.11;100.00
45403;BME280;47427;51.976;5.326;2023-03-22T15:22:21;100449.25;;;10.84;100.00
45403;BME280;47427;51.976;5.326;2023-03-22T15:25:50;100458.16;;;10.94;100.00
45403;BME280;47427;51.976;5.326;2023-03-22T15:29:26;100470.31;;;10.87;100.00
45403;BME280;47427;51.976;5.326;2023-03-22T15:32:49;100457.97;;;10.81;100.00
45403;BME280;47427;51.976;5.326;2023-03-22T15:36:17;100437.47;;;11.11;100.00
45403;BME280;47427;51.976;5.326;2023-03-22T15:39:40;100420.94;;;11.15;100.00
45403;BME280;47427;51.976;5.326;2023-03-22T15:43:37;100420.66;;;11.54;100.00
45403;BME280;47427;51.976;5.326;2023-03-22T15:47:08;100426.75;;;11.50;100.00
45403;BME280;47427;51.976;5.326;2023-03-22T15:50:38;100432.84;;;11.49;100.00
45403;BME280;47427;51.976;5.326;2023-03-22T15:54:04;100412.88;;;11.05;100.00
45403;BME280;47427;51.976;5.326;2023-03-22T16:01:33;100442.66;;;11.06;100.00
45403;BME280;47427;51.976;5.326;2023-03-22T16:04:56;100439.06;;;11.01;100.00
45403;BME280;47427;51.976;5.326;2023-03-22T16:08:18;100437.84;;;10.82;100.00
45403;BME280;47427;51.976;5.326;2023-03-22T16:11:41;100421.03;;;10.72;100.00
45403;BME280;47427;51.976;5.326;2023-03-22T16:15:05;100426.34;;;10.75;100.00
45403;BME280;47427;51.976;5.326;2023-03-22T16:18:49;100432.41;;;10.73;100.00
45403;BME280;47427;51.976;5.326;2023-03-22T16:22:14;100412.03;;;10.58;100.00
45403;BME280;47427;51.976;5.326;2023-03-22T16:25:37;100416.47;;;10.62;100.00
45403;BME280;47427;51.976;5.326;2023-03-22T16:28:59;100408.03;;;10.78;100.00
45403;BME280;47427;51.976;5.326;2023-03-22T16:32:24;100432.59;;;10.82;100.00
45403;BME280;47427;51.976;5.326;2023-03-22T16:35:48;100431.59;;;10.74;100.00
45403;BME280;47427;51.976;5.326;2023-03-22T16:39:09;100436.84;;;10.75;100.00
45403;BME280;47427;51.976;5.326;2023-03-22T16:42:32;100434.13;;;10.71;100.00
45403;BME280;47427;51.976;5.326;2023-03-22T16:45:54;100411.47;;;10.74;100.00
45403;BME280;47427;51.976;5.326;2023-03-22T16:49:16;100405.94;;;10.60;100.00
45403;BME280;47427;51.976;5.326;2023-03-22T16:52:39;100413.81;;;10.59;100.00
45403;BME280;47427;51.976;5.326;2023-03-22T16:56:01;100390.00;;;10.50;100.00
45403;BME280;47427;51.976;5.326;2023-03-22T16:59:23;100398.81;;;10.52;100.00
45403;BME280;47427;51.976;5.326;2023-03-22T17:02:54;100394.44;;;10.51;100.00
45403;BME280;47427;51.976;5.326;2023-03-22T17:06:19;100371.47;;;10.39;100.00
45403;BME280;47427;51.976;5.326;2023-03-22T17:09:43;100403.91;;;10.44;100.00
45403;BME280;47427;51.976;5.326;2023-03-22T17:13:06;100389.03;;;10.45;100.00
45403;BME280;47427;51.976;5.326;2023-03-22T17:16:28;100371.41;;;10.36;100.00
45403;BME280;47427;51.976;5.326;2023-03-22T17:19:54;100385.41;;;10.38;100.00
45403;BME280;47427;51.976;5.326;2023-03-22T17:23:17;100407.22;;;10.35;100.00
45403;BME280;47427;51.976;5.326;2023-03-22T17:26:40;100397.59;;;10.34;100.00
45403;BME280;47427;51.976;5.326;2023-03-22T17:30:03;100396.66;;;10.32;100.00
45403;BME280;47427;51.976;5.326;2023-03-22T17:33:25;100409.03;;;10.39;100.00
45403;BME280;47427;51.976;5.326;2023-03-22T17:36:48;100412.53;;;10.40;100.00
45403;BME280;47427;51.976;5.326;2023-03-22T17:40:14;100405.41;;;10.33;100.00
45403;BME280;47427;51.976;5.326;2023-03-22T17:43:37;100414.38;;;10.44;100.00
45403;BME280;47427;51.976;5.326;2023-03-22T17:47:00;100426.59;;;10.42;100.00
45403;BME280;47427;51.976;5.326;2023-03-22T17:50:22;100432.59;;;10.38;100.00
45403;BME280;47427;51.976;5.326;2023-03-22T17:53:49;100423.69;;;10.28;100.00
45403;BME280;47427;51.976;5.326;2023-03-22T17:57:13;100431.47;;;10.27;100.00
45403;BME280;47427;51.976;5.326;2023-03-22T18:00:34;100433.22;;;10.26;100.00
45403;BME280;47427;51.976;5.326;2023-03-22T18:03:58;100426.19;;;10.24;100.00
45403;BME280;47427;51.976;5.326;2023-03-22T18:07:19;100426.19;;;10.25;100.00
45403;BME280;47427;51.976;5.326;2023-03-22T18:10:44;100421.88;;;10.26;100.00
45403;BME280;47427;51.976;5.326;2023-03-22T18:14:06;100426.25;;;10.27;100.00
45403;BME280;47427;51.976;5.326;2023-03-22T18:17:28;100411.47;;;10.30;100.00
45403;BME280;47427;51.976;5.326;2023-03-22T18:20:51;100393.03;;;10.26;100.00
45403;BME280;47427;51.976;5.326;2023-03-22T18:24:14;100392.94;;;10.23;100.00
45403;BME280;47427;51.976;5.326;2023-03-22T18:27:35;100381.47;;;10.17;100.00
45403;BME280;47427;51.976;5.326;2023-03-22T18:30:57;100390.25;;;10.18;100.00
45403;BME280;47427;51.976;5.326;2023-03-22T18:34:19;100389.34;;;10.17;100.00
45403;BME280;47427;51.976;5.326;2023-03-22T18:37:42;100365.75;;;10.17;100.00
45403;BME280;47427;51.976;5.326;2023-03-22T18:41:09;100370.91;;;10.13;100.00
45403;BME280;47427;51.976;5.326;2023-03-22T18:44:33;100377.28;;;10.26;100.00
45403;BME280;47427;51.976;5.326;2023-03-22T18:47:56;100375.41;;;10.20;100.00
45403;BME280;47427;51.976;5.326;2023-03-22T18:51:38;100353.50;;;10.16;100.00
45403;BME280;47427;51.976;5.326;2023-03-22T18:55:02;100333.41;;;10.17;100.00
45403;BME280;47427;51.976;5.326;2023-03-22T18:58:24;100346.50;;;10.17;100.00
45403;BME280;47427;51.976;5.326;2023-03-22T19:01:46;100347.50;;;10.22;100.00
45403;BME280;47427;51.976;5.326;2023-03-22T19:05:09;100353.66;;;10.24;100.00
45403;BME280;47427;51.976;5.326;2023-03-22T19:08:32;100330.00;;;10.23;100.00
45403;BME280;47427;51.976;5.326;2023-03-22T19:11:54;100342.25;;;10.22;100.00
45403;BME280;47427;51.976;5.326;2023-03-22T19:15:17;100337.00;;;10.22;100.00
45403;BME280;47427;51.976;5.326;2023-03-22T19:18:38;100344.03;;;10.25;100.00
45403;BME280;47427;51.976;5.326;2023-03-22T19:22:01;100350.34;;;10.31;100.00
45403;BME280;47427;51.976;5.326;2023-03-22T19:25:24;100329.13;;;10.22;100.00
45403;BME280;47427;51.976;5.326;2023-03-22T19:28:45;100335.25;;;10.23;100.00